Aviation Digital Data Service (ADDS)

Output produced by TAFs form (0440 UTC 28 July 2017)
found at http://www.aviationweather.gov/adds/tafs/
 
METAR text: RJSR 280400Z VRB01KT 9999 FEW020 SCT040 BKN/// 27/22 Q1008
Conditions at: RJSR (ODATE-NOSHIRO , JP) observed 0400 UTC 28 July 2017
Temperature: 27.0°C (81°F)
Dewpoint: 22.0°C (72°F) [RH = 74%]
Pressure (altimeter): 29.76 inches Hg (1008.0 mb)
Winds: variable direction winds at 1 MPH (1 knots; 0.5 m/s)
Visibility: 6 or more miles (10+ km)
Ceiling: at least 12,000 feet AGL
Clouds: few clouds at 2000 feet AGL
scattered clouds at 4000 feet AGL
Weather: no significant weather observed at this time